sensor_id;sensor_type;location;lat;lon;timestamp;P1;P2;P0
69746;PMS7003;57018;50.278;19.134;2023-09-07T00:00:14;36.50;33.00;22.00
69746;PMS7003;57018;50.278;19.134;2023-09-07T00:02:42;34.00;28.00;20.00
69746;PMS7003;57018;50.278;19.134;2023-09-07T00:05:10;35.00;30.00;21.00
69746;PMS7003;57018;50.278;19.134;2023-09-07T00:07:39;32.50;28.50;20.00
69746;PMS7003;57018;50.278;19.134;2023-09-07T00:10:08;33.50;30.50;21.00
69746;PMS7003;57018;50.278;19.134;2023-09-07T00:12:36;31.50;30.00;19.50
69746;PMS7003;57018;50.278;19.134;2023-09-07T00:15:06;33.50;31.00;20.50
69746;PMS7003;57018;50.278;19.134;2023-09-07T00:17:36;37.00;33.00;20.00
69746;PMS7003;57018;50.278;19.134;2023-09-07T00:20:05;31.00;28.00;18.00
69746;PMS7003;57018;50.278;19.134;2023-09-07T00:22:37;28.00;28.00;20.00
69746;PMS7003;57018;50.278;19.134;2023-09-07T00:25:05;26.00;23.00;17.00
69746;PMS7003;57018;50.278;19.134;2023-09-07T00:27:35;26.50;26.00;20.00
69746;PMS7003;57018;50.278;19.134;2023-09-07T00:30:03;33.00;31.00;20.00
69746;PMS7003;57018;50.278;19.134;2023-09-07T00:32:32;30.00;30.00;20.00
69746;PMS7003;57018;50.278;19.134;2023-09-07T00:35:02;33.50;27.50;21.00
69746;PMS7003;57018;50.278;19.134;2023-09-07T00:37:31;28.00;26.00;19.00
69746;PMS7003;57018;50.278;19.134;2023-09-07T00:39:59;32.00;25.50;18.00
69746;PMS7003;57018;50.278;19.134;2023-09-07T00:42:27;26.00;26.00;17.00
69746;PMS7003;57018;50.278;19.134;2023-09-07T00:44:55;32.50;31.50;20.00
69746;PMS7003;57018;50.278;19.134;2023-09-07T00:47:22;32.00;29.00;20.00
69746;PMS7003;57018;50.278;19.134;2023-09-07T00:49:50;34.00;31.00;22.00
69746;PMS7003;57018;50.278;19.134;2023-09-07T00:52:18;34.00;30.00;22.00
69746;PMS7003;57018;50.278;19.134;2023-09-07T00:54:47;31.00;29.00;20.00
69746;PMS7003;57018;50.278;19.134;2023-09-07T00:57:15;37.00;32.00;20.00
69746;PMS7003;57018;50.278;19.134;2023-09-07T00:59:43;30.00;30.00;22.00
69746;PMS7003;57018;50.278;19.134;2023-09-07T01:02:11;29.00;27.00;20.00
69746;PMS7003;57018;50.278;19.134;2023-09-07T01:04:39;35.00;29.00;20.00
69746;PMS7003;57018;50.278;19.134;2023-09-07T01:07:09;39.00;29.00;20.00
69746;PMS7003;57018;50.278;19.134;2023-09-07T01:12:14;36.00;31.00;20.00
69746;PMS7003;57018;50.278;19.134;2023-09-07T01:14:42;31.00;28.00;20.00
69746;PMS7003;57018;50.278;19.134;2023-09-07T01:19:38;32.00;28.00;19.00
69746;PMS7003;57018;50.278;19.134;2023-09-07T01:22:06;30.00;27.00;19.00
69746;PMS7003;57018;50.278;19.134;2023-09-07T01:24:34;32.00;28.50;19.50
69746;PMS7003;57018;50.278;19.134;2023-09-07T01:27:04;31.00;27.00;17.00
69746;PMS7003;57018;50.278;19.134;2023-09-07T01:29:32;26.00;24.00;17.00
69746;PMS7003;57018;50.278;19.134;2023-09-07T01:32:00;27.50;26.50;19.00
69746;PMS7003;57018;50.278;19.134;2023-09-07T01:34:28;25.00;25.00;16.00
69746;PMS7003;57018;50.278;19.134;2023-09-07T01:36:55;30.00;27.00;20.00
69746;PMS7003;57018;50.278;19.134;2023-09-07T01:39:23;31.00;29.00;20.00
69746;PMS7003;57018;50.278;19.134;2023-09-07T01:41:52;25.00;21.00;14.00
69746;PMS7003;57018;50.278;19.134;2023-09-07T01:46:47;29.50;26.50;18.00
69746;PMS7003;57018;50.278;19.134;2023-09-07T01:49:14;27.00;25.50;18.00
69746;PMS7003;57018;50.278;19.134;2023-09-07T01:51:42;29.00;25.00;17.00
69746;PMS7003;57018;50.278;19.134;2023-09-07T01:56:37;25.00;24.00;18.00
69746;PMS7003;57018;50.278;19.134;2023-09-07T01:59:07;31.00;30.00;18.00
69746;PMS7003;57018;50.278;19.134;2023-09-07T02:01:35;30.00;28.00;19.00
69746;PMS7003;57018;50.278;19.134;2023-09-07T02:04:05;26.00;25.00;18.50
69746;PMS7003;57018;50.278;19.134;2023-09-07T02:06:33;30.00;27.00;17.00
69746;PMS7003;57018;50.278;19.134;2023-09-07T02:09:01;28.00;27.00;19.00
69746;PMS7003;57018;50.278;19.134;2023-09-07T02:11:30;32.00;30.00;21.50
69746;PMS7003;57018;50.278;19.134;2023-09-07T02:13:58;29.00;27.00;19.00
69746;PMS7003;57018;50.278;19.134;2023-09-07T02:16:25;28.00;28.00;21.00
69746;PMS7003;57018;50.278;19.134;2023-09-07T02:19:00;31.00;30.00;21.00
69746;PMS7003;57018;50.278;19.134;2023-09-07T02:21:30;31.00;28.00;18.00
69746;PMS7003;57018;50.278;19.134;2023-09-07T02:23:57;25.00;25.00;18.00
69746;PMS7003;57018;50.278;19.134;2023-09-07T02:26:25;28.00;25.00;19.00
69746;PMS7003;57018;50.278;19.134;2023-09-07T02:28:53;23.50;23.00;17.00
69746;PMS7003;57018;50.278;19.134;2023-09-07T02:31:21;33.00;30.00;23.00
69746;PMS7003;57018;50.278;19.134;2023-09-07T02:33:49;33.00;29.00;20.50
69746;PMS7003;57018;50.278;19.134;2023-09-07T02:38:44;30.00;28.00;18.50
69746;PMS7003;57018;50.278;19.134;2023-09-07T02:41:12;27.50;27.50;19.50
69746;PMS7003;57018;50.278;19.134;2023-09-07T02:46:06;32.00;28.00;22.00
69746;PMS7003;57018;50.278;19.134;2023-09-07T02:48:34;25.50;23.00;16.00
69746;PMS7003;57018;50.278;19.134;2023-09-07T02:51:02;26.00;25.00;18.00
69746;PMS7003;57018;50.278;19.134;2023-09-07T02:53:30;26.00;26.00;19.00
69746;PMS7003;57018;50.278;19.134;2023-09-07T02:55:58;28.00;27.00;18.00
69746;PMS7003;57018;50.278;19.134;2023-09-07T03:00:55;25.50;25.00;17.50
69746;PMS7003;57018;50.278;19.134;2023-09-07T03:03:22;32.00;28.00;19.00
69746;PMS7003;57018;50.278;19.134;2023-09-07T03:05:50;24.00;24.00;18.00
69746;PMS7003;57018;50.278;19.134;2023-09-07T03:08:18;29.50;27.50;21.00
69746;PMS7003;57018;50.278;19.134;2023-09-07T03:10:46;31.00;29.00;21.00
69746;PMS7003;57018;50.278;19.134;2023-09-07T03:13:14;31.00;28.00;21.00
69746;PMS7003;57018;50.278;19.134;2023-09-07T03:15:41;33.50;29.50;20.50
69746;PMS7003;57018;50.278;19.134;2023-09-07T03:18:10;30.00;26.00;19.00
69746;PMS7003;57018;50.278;19.134;2023-09-07T03:20:38;30.00;26.00;19.00
69746;PMS7003;57018;50.278;19.134;2023-09-07T03:23:06;34.00;32.00;23.00
69746;PMS7003;57018;50.278;19.134;2023-09-07T03:25:33;43.50;33.00;23.00
69746;PMS7003;57018;50.278;19.134;2023-09-07T03:28:01;40.00;34.00;23.00
69746;PMS7003;57018;50.278;19.134;2023-09-07T03:30:30;30.00;27.00;20.00
69746;PMS7003;57018;50.278;19.134;2023-09-07T03:32:58;30.00;28.00;19.00
69746;PMS7003;57018;50.278;19.134;2023-09-07T03:35:25;31.00;29.00;20.00
69746;PMS7003;57018;50.278;19.134;2023-09-07T03:37:53;34.00;33.00;22.00
69746;PMS7003;57018;50.278;19.134;2023-09-07T03:40:21;34.50;30.50;20.00
69746;PMS7003;57018;50.278;19.134;2023-09-07T03:42:49;33.00;31.00;21.00
69746;PMS7003;57018;50.278;19.134;2023-09-07T03:47:44;29.00;24.00;17.50
69746;PMS7003;57018;50.278;19.134;2023-09-07T03:50:11;27.00;25.00;16.00
69746;PMS7003;57018;50.278;19.134;2023-09-07T03:52:39;29.50;28.00;19.50
69746;PMS7003;57018;50.278;19.134;2023-09-07T03:55:07;30.00;27.00;18.00
69746;PMS7003;57018;50.278;19.134;2023-09-07T03:57:36;32.50;31.50;22.00
69746;PMS7003;57018;50.278;19.134;2023-09-07T04:00:04;37.50;32.50;21.50
69746;PMS7003;57018;50.278;19.134;2023-09-07T04:02:34;30.00;28.00;20.00
69746;PMS7003;57018;50.278;19.134;2023-09-07T04:05:02;33.00;30.50;21.50
69746;PMS7003;57018;50.278;19.134;2023-09-07T04:07:31;36.50;32.50;22.50
69746;PMS7003;57018;50.278;19.134;2023-09-07T04:09:59;36.00;33.00;22.00
69746;PMS7003;57018;50.278;19.134;2023-09-07T04:12:27;29.50;28.00;21.00
69746;PMS7003;57018;50.278;19.134;2023-09-07T04:14:55;32.50;32.00;22.00
69746;PMS7003;57018;50.278;19.134;2023-09-07T04:17:22;40.50;37.50;24.00
69746;PMS7003;57018;50.278;19.134;2023-09-07T04:19:50;41.00;35.00;23.00
69746;PMS7003;57018;50.278;19.134;2023-09-07T04:22:18;35.00;33.50;23.50
69746;PMS7003;57018;50.278;19.134;2023-09-07T04:24:47;35.50;34.00;23.00
69746;PMS7003;57018;50.278;19.134;2023-09-07T04:27:15;39.00;32.00;21.00
69746;PMS7003;57018;50.278;19.134;2023-09-07T04:29:43;29.00;29.00;20.00
69746;PMS7003;57018;50.278;19.134;2023-09-07T04:32:11;37.00;34.00;23.00
69746;PMS7003;57018;50.278;19.134;2023-09-07T04:34:38;31.00;30.00;21.00
69746;PMS7003;57018;50.278;19.134;2023-09-07T04:37:06;40.00;34.50;24.00
69746;PMS7003;57018;50.278;19.134;2023-09-07T04:39:34;34.00;32.50;21.50
69746;PMS7003;57018;50.278;19.134;2023-09-07T04:44:29;31.00;27.00;20.00
69746;PMS7003;57018;50.278;19.134;2023-09-07T04:46:57;40.50;32.50;22.50
69746;PMS7003;57018;50.278;19.134;2023-09-07T04:49:24;35.00;33.00;23.00
69746;PMS7003;57018;50.278;19.134;2023-09-07T04:51:53;32.00;31.00;22.00
69746;PMS7003;57018;50.278;19.134;2023-09-07T04:54:21;31.50;28.00;20.50
69746;PMS7003;57018;50.278;19.134;2023-09-07T04:56:49;39.00;33.00;23.00
69746;PMS7003;57018;50.278;19.134;2023-09-07T04:59:17;39.00;33.00;23.00
69746;PMS7003;57018;50.278;19.134;2023-09-07T05:01:44;35.00;32.00;22.00
69746;PMS7003;57018;50.278;19.134;2023-09-07T05:09:07;42.00;36.00;25.00
69746;PMS7003;57018;50.278;19.134;2023-09-07T05:11:35;46.00;35.00;25.00
69746;PMS7003;57018;50.278;19.134;2023-09-07T05:14:03;36.50;32.50;23.00
69746;PMS7003;57018;50.278;19.134;2023-09-07T05:16:31;31.00;30.00;22.00
69746;PMS7003;57018;50.278;19.134;2023-09-07T05:21:25;41.00;35.00;26.00
69746;PMS7003;57018;50.278;19.134;2023-09-07T05:26:23;45.00;37.00;25.00
69746;PMS7003;57018;50.278;19.134;2023-09-07T05:28:51;36.00;31.50;23.00
69746;PMS7003;57018;50.278;19.134;2023-09-07T05:31:19;42.50;68.50;25.00
69746;PMS7003;57018;50.278;19.134;2023-09-07T05:36:13;43.00;36.00;22.00
69746;PMS7003;57018;50.278;19.134;2023-09-07T05:38:41;37.00;34.00;22.00
69746;PMS7003;57018;50.278;19.134;2023-09-07T05:41:09;42.50;37.00;24.00
69746;PMS7003;57018;50.278;19.134;2023-09-07T05:43:37;42.50;36.00;24.50
69746;PMS7003;57018;50.278;19.134;2023-09-07T05:46:04;46.00;39.00;28.00
69746;PMS7003;57018;50.278;19.134;2023-09-07T05:48:32;42.00;37.00;28.00
69746;PMS7003;57018;50.278;19.134;2023-09-07T05:51:00;38.00;35.00;24.00
69746;PMS7003;57018;50.278;19.134;2023-09-07T05:55:55;49.00;39.50;27.00
69746;PMS7003;57018;50.278;19.134;2023-09-07T05:58:22;39.00;35.00;24.00
69746;PMS7003;57018;50.278;19.134;2023-09-07T06:00:50;46.00;36.50;24.00
69746;PMS7003;57018;50.278;19.134;2023-09-07T06:03:18;37.00;35.00;22.00
69746;PMS7003;57018;50.278;19.134;2023-09-07T06:05:46;33.00;31.00;21.00
69746;PMS7003;57018;50.278;19.134;2023-09-07T06:08:14;29.00;27.00;18.00
69746;PMS7003;57018;50.278;19.134;2023-09-07T06:10:42;36.00;32.00;20.00
69746;PMS7003;57018;50.278;19.134;2023-09-07T06:13:09;37.00;32.00;21.00
69746;PMS7003;57018;50.278;19.134;2023-09-07T06:15:37;33.00;30.00;18.00
69746;PMS7003;57018;50.278;19.134;2023-09-07T06:18:05;33.00;29.50;20.00
69746;PMS7003;57018;50.278;19.134;2023-09-07T06:20:33;28.00;26.00;19.00
69746;PMS7003;57018;50.278;19.134;2023-09-07T06:23:01;33.00;28.00;19.00
69746;PMS7003;57018;50.278;19.134;2023-09-07T06:25:29;29.00;27.00;19.00
69746;PMS7003;57018;50.278;19.134;2023-09-07T06:27:57;20.00;18.00;17.00
69746;PMS7003;57018;50.278;19.134;2023-09-07T06:30:25;22.50;18.50;14.50
69746;PMS7003;57018;50.278;19.134;2023-09-07T06:32:53;23.00;23.00;16.00
69746;PMS7003;57018;50.278;19.134;2023-09-07T06:35:22;29.00;24.00;16.00
69746;PMS7003;57018;50.278;19.134;2023-09-07T06:37:50;28.00;24.00;16.00
69746;PMS7003;57018;50.278;19.134;2023-09-07T06:40:17;22.00;21.00;14.00
69746;PMS7003;57018;50.278;19.134;2023-09-07T06:45:12;19.00;18.00;13.00
69746;PMS7003;57018;50.278;19.134;2023-09-07T06:47:40;20.00;16.00;11.00
69746;PMS7003;57018;50.278;19.134;2023-09-07T06:50:08;20.50;17.50;11.50
69746;PMS7003;57018;50.278;19.134;2023-09-07T06:52:36;18.00;16.00;12.00
69746;PMS7003;57018;50.278;19.134;2023-09-07T06:55:04;16.50;16.50;11.50
69746;PMS7003;57018;50.278;19.134;2023-09-07T06:57:33;19.50;16.50;12.00
69746;PMS7003;57018;50.278;19.134;2023-09-07T07:00:01;14.50;12.00;10.00
69746;PMS7003;57018;50.278;19.134;2023-09-07T07:02:31;19.00;12.00;9.00
69746;PMS7003;57018;50.278;19.134;2023-09-07T07:05:00;18.00;17.00;10.00
69746;PMS7003;57018;50.278;19.134;2023-09-07T07:07:29;16.00;12.00;7.00
69746;PMS7003;57018;50.278;19.134;2023-09-07T07:09:57;16.00;16.00;12.00
69746;PMS7003;57018;50.278;19.134;2023-09-07T07:12:24;17.00;17.00;12.00
69746;PMS7003;57018;50.278;19.134;2023-09-07T07:14:52;13.50;13.50;10.50
69746;PMS7003;57018;50.278;19.134;2023-09-07T07:17:21;18.00;18.00;12.00
69746;PMS7003;57018;50.278;19.134;2023-09-07T07:19:49;18.00;17.00;11.00
69746;PMS7003;57018;50.278;19.134;2023-09-07T07:22:17;16.00;14.00;10.00
69746;PMS7003;57018;50.278;19.134;2023-09-07T07:24:45;16.00;15.00;9.00
69746;PMS7003;57018;50.278;19.134;2023-09-07T07:27:13;17.00;14.00;12.00
69746;PMS7003;57018;50.278;19.134;2023-09-07T07:29:41;17.00;15.50;10.00
69746;PMS7003;57018;50.278;19.134;2023-09-07T07:34:35;15.00;14.00;9.00
69746;PMS7003;57018;50.278;19.134;2023-09-07T07:37:03;15.00;15.00;11.00
69746;PMS7003;57018;50.278;19.134;2023-09-07T07:41:58;16.00;13.00;10.00
69746;PMS7003;57018;50.278;19.134;2023-09-07T07:44:26;15.50;15.50;10.50
69746;PMS7003;57018;50.278;19.134;2023-09-07T07:51:48;16.00;15.00;10.00
69746;PMS7003;57018;50.278;19.134;2023-09-07T07:56:42;13.00;12.00;9.00
69746;PMS7003;57018;50.278;19.134;2023-09-07T07:59:10;18.00;18.00;12.00
69746;PMS7003;57018;50.278;19.134;2023-09-07T08:01:38;18.00;15.00;11.00
69746;PMS7003;57018;50.278;19.134;2023-09-07T08:04:06;17.00;16.00;12.00
69746;PMS7003;57018;50.278;19.134;2023-09-07T08:06:34;20.00;15.00;12.00
69746;PMS7003;57018;50.278;19.134;2023-09-07T08:09:02;16.00;14.00;11.00
69746;PMS7003;57018;50.278;19.134;2023-09-07T08:11:30;17.00;15.00;12.00
69746;PMS7003;57018;50.278;19.134;2023-09-07T08:13:58;21.00;15.00;11.00
69746;PMS7003;57018;50.278;19.134;2023-09-07T08:16:26;17.00;17.00;9.00
69746;PMS7003;57018;50.278;19.134;2023-09-07T08:18:54;16.50;16.50;13.50
69746;PMS7003;57018;50.278;19.134;2023-09-07T08:21:22;14.00;13.00;8.00
69746;PMS7003;57018;50.278;19.134;2023-09-07T08:23:49;13.00;13.00;10.00
69746;PMS7003;57018;50.278;19.134;2023-09-07T08:28:46;15.00;13.00;10.00
69746;PMS7003;57018;50.278;19.134;2023-09-07T08:31:14;18.00;14.00;10.00
69746;PMS7003;57018;50.278;19.134;2023-09-07T08:36:17;18.00;15.00;11.00
69746;PMS7003;57018;50.278;19.134;2023-09-07T08:38:48;15.00;13.00;8.50
69746;PMS7003;57018;50.278;19.134;2023-09-07T08:43:46;17.00;12.00;9.00
69746;PMS7003;57018;50.278;19.134;2023-09-07T08:46:19;14.00;14.00;11.00
69746;PMS7003;57018;50.278;19.134;2023-09-07T08:48:49;14.00;12.00;9.00
69746;PMS7003;57018;50.278;19.134;2023-09-07T08:51:18;10.00;10.00;8.00
69746;PMS7003;57018;50.278;19.134;2023-09-07T08:53:46;12.00;12.00;9.00
69746;PMS7003;57018;50.278;19.134;2023-09-07T08:56:15;13.00;11.00;8.00
69746;PMS7003;57018;50.278;19.134;2023-09-07T08:58:44;13.33;12.00;8.33
69746;PMS7003;57018;50.278;19.134;2023-09-07T09:01:15;11.00;11.00;7.00
69746;PMS7003;57018;50.278;19.134;2023-09-07T09:06:10;13.50;11.50;8.00
69746;PMS7003;57018;50.278;19.134;2023-09-07T09:08:42;16.00;13.00;8.00
69746;PMS7003;57018;50.278;19.134;2023-09-07T09:11:10;11.00;11.00;8.00
69746;PMS7003;57018;50.278;19.134;2023-09-07T09:13:39;13.00;12.00;9.00
69746;PMS7003;57018;50.278;19.134;2023-09-07T09:16:07;12.00;10.00;7.00
69746;PMS7003;57018;50.278;19.134;2023-09-07T09:18:36;13.50;12.50;8.50
69746;PMS7003;57018;50.278;19.134;2023-09-07T09:21:05;12.00;12.00;8.00
69746;PMS7003;57018;50.278;19.134;2023-09-07T09:26:00;14.00;12.00;7.50
69746;PMS7003;57018;50.278;19.134;2023-09-07T09:28:30;9.00;9.00;8.00
69746;PMS7003;57018;50.278;19.134;2023-09-07T09:30:58;12.00;12.00;9.00
69746;PMS7003;57018;50.278;19.134;2023-09-07T09:33:26;10.50;10.50;9.00
69746;PMS7003;57018;50.278;19.134;2023-09-07T09:35:56;10.00;10.00;8.00
69746;PMS7003;57018;50.278;19.134;2023-09-07T09:38:25;8.00;8.00;7.00
69746;PMS7003;57018;50.278;19.134;2023-09-07T09:40:53;9.00;8.00;7.00
69746;PMS7003;57018;50.278;19.134;2023-09-07T09:43:21;9.00;9.00;7.00
69746;PMS7003;57018;50.278;19.134;2023-09-07T09:45:50;12.00;11.50;7.50
69746;PMS7003;57018;50.278;19.134;2023-09-07T09:48:19;12.50;10.50;10.00
69746;PMS7003;57018;50.278;19.134;2023-09-07T09:50:47;13.50;12.00;8.00
69746;PMS7003;57018;50.278;19.134;2023-09-07T09:53:16;10.50;10.50;8.00
69746;PMS7003;57018;50.278;19.134;2023-09-07T09:58:13;14.00;12.00;8.00
69746;PMS7003;57018;50.278;19.134;2023-09-07T10:00:42;10.00;10.00;7.50
69746;PMS7003;57018;50.278;19.134;2023-09-07T10:03:12;9.00;9.00;7.00
69746;PMS7003;57018;50.278;19.134;2023-09-07T10:05:45;11.50;11.50;7.00
69746;PMS7003;57018;50.278;19.134;2023-09-07T10:08:14;11.00;11.00;8.00
69746;PMS7003;57018;50.278;19.134;2023-09-07T10:10:44;12.00;10.00;8.00
69746;PMS7003;57018;50.278;19.134;2023-09-07T10:13:14;10.00;8.50;7.00
69746;PMS7003;57018;50.278;19.134;2023-09-07T10:15:43;13.00;13.00;8.00
69746;PMS7003;57018;50.278;19.134;2023-09-07T10:18:12;12.00;12.00;8.00
69746;PMS7003;57018;50.278;19.134;2023-09-07T10:20:54;12.00;12.00;7.00
69746;PMS7003;57018;50.278;19.134;2023-09-07T10:23:34;12.00;12.00;6.00
69746;PMS7003;57018;50.278;19.134;2023-09-07T10:26:04;10.50;10.50;7.50
69746;PMS7003;57018;50.278;19.134;2023-09-07T10:28:36;11.00;11.00;9.00
69746;PMS7003;57018;50.278;19.134;2023-09-07T10:31:04;9.00;9.00;6.00
69746;PMS7003;57018;50.278;19.134;2023-09-07T10:33:34;11.00;11.00;9.00
69746;PMS7003;57018;50.278;19.134;2023-09-07T10:36:03;9.00;9.00;8.00
69746;PMS7003;57018;50.278;19.134;2023-09-07T10:38:32;12.00;10.00;8.00
69746;PMS7003;57018;50.278;19.134;2023-09-07T10:41:00;10.00;10.00;7.00
69746;PMS7003;57018;50.278;19.134;2023-09-07T10:43:29;11.00;9.50;6.00
69746;PMS7003;57018;50.278;19.134;2023-09-07T10:45:59;10.00;10.00;7.00
69746;PMS7003;57018;50.278;19.134;2023-09-07T10:48:29;7.50;7.50;6.50
69746;PMS7003;57018;50.278;19.134;2023-09-07T10:50:57;10.00;7.50;6.00
69746;PMS7003;57018;50.278;19.134;2023-09-07T10:53:26;12.00;12.00;7.00
69746;PMS7003;57018;50.278;19.134;2023-09-07T10:55:57;12.50;12.00;9.00
69746;PMS7003;57018;50.278;19.134;2023-09-07T10:58:26;12.00;12.00;8.50
69746;PMS7003;57018;50.278;19.134;2023-09-07T11:00:56;14.00;11.00;7.00
69746;PMS7003;57018;50.278;19.134;2023-09-07T11:03:24;11.50;11.50;7.50
69746;PMS7003;57018;50.278;19.134;2023-09-07T11:05:53;13.00;12.00;8.00
69746;PMS7003;57018;50.278;19.134;2023-09-07T11:08:35;14.00;12.50;9.00
69746;PMS7003;57018;50.278;19.134;2023-09-07T11:11:03;10.00;10.00;7.00
69746;PMS7003;57018;50.278;19.134;2023-09-07T11:13:31;11.00;9.00;8.00
69746;PMS7003;57018;50.278;19.134;2023-09-07T11:16:00;13.00;13.00;8.00
69746;PMS7003;57018;50.278;19.134;2023-09-07T11:18:28;15.00;13.00;9.00
69746;PMS7003;57018;50.278;19.134;2023-09-07T11:20:56;12.00;9.00;6.00
69746;PMS7003;57018;50.278;19.134;2023-09-07T11:23:25;10.00;10.00;7.00
69746;PMS7003;57018;50.278;19.134;2023-09-07T11:25:54;10.00;10.00;7.00
69746;PMS7003;57018;50.278;19.134;2023-09-07T11:28:22;14.00;12.00;8.00
69746;PMS7003;57018;50.278;19.134;2023-09-07T11:30:51;14.00;13.00;8.00
69746;PMS7003;57018;50.278;19.134;2023-09-07T11:38:15;14.00;12.00;8.00
69746;PMS7003;57018;50.278;19.134;2023-09-07T11:40:44;13.00;12.00;8.50
69746;PMS7003;57018;50.278;19.134;2023-09-07T11:43:12;12.00;12.00;7.50
69746;PMS7003;57018;50.278;19.134;2023-09-07T11:48:08;9.00;9.00;7.50
69746;PMS7003;57018;50.278;19.134;2023-09-07T11:50:36;11.50;10.00;8.00
69746;PMS7003;57018;50.278;19.134;2023-09-07T11:53:05;9.00;9.00;7.00
69746;PMS7003;57018;50.278;19.134;2023-09-07T11:55:33;10.00;8.50;7.00
69746;PMS7003;57018;50.278;19.134;2023-09-07T11:58:01;13.50;10.50;7.50
69746;PMS7003;57018;50.278;19.134;2023-09-07T12:00:30;14.00;14.00;9.00
69746;PMS7003;57018;50.278;19.134;2023-09-07T12:02:58;12.00;12.00;8.00
69746;PMS7003;57018;50.278;19.134;2023-09-07T12:05:26;12.00;12.00;9.00
69746;PMS7003;57018;50.278;19.134;2023-09-07T12:10:21;12.00;9.50;8.00
69746;PMS7003;57018;50.278;19.134;2023-09-07T12:12:49;12.00;10.00;7.50
69746;PMS7003;57018;50.278;19.134;2023-09-07T12:15:17;9.00;9.00;8.00
69746;PMS7003;57018;50.278;19.134;2023-09-07T12:17:45;12.00;11.00;7.00
69746;PMS7003;57018;50.278;19.134;2023-09-07T12:20:14;14.50;13.50;10.00
69746;PMS7003;57018;50.278;19.134;2023-09-07T12:22:42;11.00;11.00;8.50
69746;PMS7003;57018;50.278;19.134;2023-09-07T12:25:10;13.00;8.50;6.50
69746;PMS7003;57018;50.278;19.134;2023-09-07T12:27:38;11.00;11.00;8.00
69746;PMS7003;57018;50.278;19.134;2023-09-07T12:30:07;12.00;12.00;7.50
69746;PMS7003;57018;50.278;19.134;2023-09-07T12:32:38;12.00;11.00;9.00
69746;PMS7003;57018;50.278;19.134;2023-09-07T12:35:07;15.00;13.00;9.00
69746;PMS7003;57018;50.278;19.134;2023-09-07T12:37:35;9.00;5.00;2.00
69746;PMS7003;57018;50.278;19.134;2023-09-07T12:40:04;13.00;12.00;7.00
69746;PMS7003;57018;50.278;19.134;2023-09-07T12:42:38;12.00;11.00;8.00
69746;PMS7003;57018;50.278;19.134;2023-09-07T12:45:08;12.00;9.00;6.00
69746;PMS7003;57018;50.278;19.134;2023-09-07T12:47:37;12.00;12.00;8.00
69746;PMS7003;57018;50.278;19.134;2023-09-07T12:50:05;13.00;12.00;8.00
69746;PMS7003;57018;50.278;19.134;2023-09-07T12:52:34;13.00;12.50;9.00
69746;PMS7003;57018;50.278;19.134;2023-09-07T12:55:04;11.00;11.00;9.00
69746;PMS7003;57018;50.278;19.134;2023-09-07T12:57:33;9.00;9.00;8.00
69746;PMS7003;57018;50.278;19.134;2023-09-07T13:00:03;12.00;12.00;8.00
69746;PMS7003;57018;50.278;19.134;2023-09-07T13:02:33;14.00;12.00;9.00
69746;PMS7003;57018;50.278;19.134;2023-09-07T13:05:00;10.00;9.00;7.50
69746;PMS7003;57018;50.278;19.134;2023-09-07T13:07:31;11.50;11.50;9.00
69746;PMS7003;57018;50.278;19.134;2023-09-07T13:09:59;10.00;8.50;6.00
69746;PMS7003;57018;50.278;19.134;2023-09-07T13:12:30;12.00;11.00;7.00
69746;PMS7003;57018;50.278;19.134;2023-09-07T13:14:58;13.00;12.00;8.00
69746;PMS7003;57018;50.278;19.134;2023-09-07T13:17:26;11.00;11.00;9.00
69746;PMS7003;57018;50.278;19.134;2023-09-07T13:19:53;13.00;13.00;8.00
69746;PMS7003;57018;50.278;19.134;2023-09-07T13:22:22;9.00;8.00;6.00
69746;PMS7003;57018;50.278;19.134;2023-09-07T13:24:50;11.00;11.00;8.50
69746;PMS7003;57018;50.278;19.134;2023-09-07T13:27:17;10.50;9.50;7.50
69746;PMS7003;57018;50.278;19.134;2023-09-07T13:29:45;9.50;9.00;6.50
69746;PMS7003;57018;50.278;19.134;2023-09-07T13:32:13;11.00;11.00;8.00
69746;PMS7003;57018;50.278;19.134;2023-09-07T13:34:41;10.00;10.00;7.50
69746;PMS7003;57018;50.278;19.134;2023-09-07T13:37:08;9.00;9.00;8.00
69746;PMS7003;57018;50.278;19.134;2023-09-07T13:39:36;11.00;8.50;6.50
69746;PMS7003;57018;50.278;19.134;2023-09-07T13:42:04;10.50;10.00;8.00
69746;PMS7003;57018;50.278;19.134;2023-09-07T13:44:32;11.00;11.00;6.50
69746;PMS7003;57018;50.278;19.134;2023-09-07T13:47:00;8.00;8.00;7.00
69746;PMS7003;57018;50.278;19.134;2023-09-07T13:49:28;8.00;8.00;5.00
69746;PMS7003;57018;50.278;19.134;2023-09-07T13:51:56;10.00;9.00;7.00
69746;PMS7003;57018;50.278;19.134;2023-09-07T13:54:24;11.00;11.00;8.00
69746;PMS7003;57018;50.278;19.134;2023-09-07T13:56:52;10.00;9.00;7.00
69746;PMS7003;57018;50.278;19.134;2023-09-07T14:01:46;8.00;8.00;6.00
69746;PMS7003;57018;50.278;19.134;2023-09-07T14:04:15;15.00;10.00;7.00
69746;PMS7003;57018;50.278;19.134;2023-09-07T14:06:43;13.00;13.00;8.50
69746;PMS7003;57018;50.278;19.134;2023-09-07T14:09:10;12.00;12.00;8.00
69746;PMS7003;57018;50.278;19.134;2023-09-07T14:11:38;8.00;8.00;5.00
69746;PMS7003;57018;50.278;19.134;2023-09-07T14:14:06;10.50;10.00;7.50
69746;PMS7003;57018;50.278;19.134;2023-09-07T14:16:34;8.50;8.50;6.00
69746;PMS7003;57018;50.278;19.134;2023-09-07T14:19:02;12.00;12.00;9.00
69746;PMS7003;57018;50.278;19.134;2023-09-07T14:21:30;13.00;13.00;9.00
69746;PMS7003;57018;50.278;19.134;2023-09-07T14:23:57;8.50;8.50;6.00
69746;PMS7003;57018;50.278;19.134;2023-09-07T14:26:25;11.00;9.00;6.50
69746;PMS7003;57018;50.278;19.134;2023-09-07T14:28:53;11.00;9.00;7.00
69746;PMS7003;57018;50.278;19.134;2023-09-07T14:31:21;8.00;8.00;6.00
69746;PMS7003;57018;50.278;19.134;2023-09-07T14:33:48;7.50;5.50;4.00
69746;PMS7003;57018;50.278;19.134;2023-09-07T14:36:16;11.00;10.00;7.00
69746;PMS7003;57018;50.278;19.134;2023-09-07T14:38:44;12.50;11.50;7.50
69746;PMS7003;57018;50.278;19.134;2023-09-07T14:41:12;11.00;11.00;8.00
69746;PMS7003;57018;50.278;19.134;2023-09-07T14:43:45;13.50;10.00;7.50
69746;PMS7003;57018;50.278;19.134;2023-09-07T14:46:13;11.00;11.00;7.00
69746;PMS7003;57018;50.278;19.134;2023-09-07T14:48:41;12.00;11.00;7.00
69746;PMS7003;57018;50.278;19.134;2023-09-07T14:51:10;13.00;13.00;8.00
69746;PMS7003;57018;50.278;19.134;2023-09-07T14:53:38;11.00;11.00;8.50
69746;PMS7003;57018;50.278;19.134;2023-09-07T14:56:06;12.00;12.00;7.00
69746;PMS7003;57018;50.278;19.134;2023-09-07T14:58:33;11.00;10.00;9.00
69746;PMS7003;57018;50.278;19.134;2023-09-07T15:01:01;8.50;8.50;7.50
69746;PMS7003;57018;50.278;19.134;2023-09-07T15:03:29;12.50;12.00;8.00
69746;PMS7003;57018;50.278;19.134;2023-09-07T15:05:57;13.00;12.00;9.50